createdAt,value
2022-10-14T00:00:37.365Z,25.00
2022-10-14T00:03:03.912Z,23.70
2022-10-14T00:05:30.499Z,20.70
2022-10-14T00:07:57.045Z,19.83
2022-10-14T00:10:24.021Z,20.27
2022-10-14T00:12:50.599Z,24.77
2022-10-14T00:15:17.956Z,25.20
2022-10-14T00:17:44.524Z,18.97
2022-10-14T00:20:11.289Z,26.80
2022-10-14T00:22:37.844Z,19.30
2022-10-14T00:25:04.466Z,21.50
2022-10-14T00:27:31.959Z,22.30
2022-10-14T00:30:01.156Z,26.30
2022-10-14T00:32:27.723Z,26.17
2022-10-14T00:34:54.930Z,20.00
2022-10-14T00:37:21.759Z,20.33
2022-10-14T00:39:49.247Z,17.57
2022-10-14T00:42:24.547Z,18.63
2022-10-14T00:44:58.886Z,20.40
2022-10-14T00:47:25.430Z,24.87
2022-10-14T00:49:51.941Z,13.87
2022-10-14T00:52:19.454Z,20.73
2022-10-14T00:54:48.542Z,20.07
2022-10-14T00:57:15.797Z,19.90
2022-10-14T00:59:42.516Z,17.27
2022-10-14T01:02:09.269Z,25.63
2022-10-14T01:04:37.389Z,16.03
2022-10-14T01:07:20.613Z,16.57
2022-10-14T01:09:56.426Z,17.27
2022-10-14T01:12:36.394Z,18.77
2022-10-14T01:15:09.147Z,15.37
2022-10-14T01:17:48.217Z,13.63
2022-10-14T01:20:33.275Z,15.23
2022-10-14T01:23:12.275Z,19.50
2022-10-14T01:25:52.989Z,15.90
2022-10-14T01:28:52.636Z,25.43
2022-10-14T01:31:23.782Z,35.23
2022-10-14T01:33:53.276Z,13.80
2022-10-14T01:36:29.848Z,12.83
2022-10-14T01:39:02.500Z,13.10
2022-10-14T01:41:32.498Z,16.80
2022-10-14T01:44:02.347Z,11.50
2022-10-14T01:46:29.484Z,13.10
2022-10-14T01:49:02.276Z,14.37
2022-10-14T01:51:33.301Z,10.50
2022-10-14T01:54:05.467Z,11.53
2022-10-14T01:56:36.960Z,17.27
2022-10-14T01:59:07.672Z,17.53
2022-10-14T02:01:35.031Z,13.43
2022-10-14T02:04:01.776Z,10.17
2022-10-14T02:06:32.037Z,11.10
2022-10-14T02:09:10.904Z,12.60
2022-10-14T02:11:49.904Z,10.07
2022-10-14T02:14:25.630Z,10.13
2022-10-14T02:16:59.160Z,11.90
2022-10-14T02:19:42.175Z,11.50
2022-10-14T02:22:29.836Z,10.13
2022-10-14T02:25:19.244Z,13.60
2022-10-14T02:27:47.473Z,8.50
2022-10-14T02:30:17.005Z,11.50
2022-10-14T02:32:45.158Z,13.50
2022-10-14T02:35:15.140Z,9.77
2022-10-14T02:37:41.807Z,7.47
2022-10-14T02:40:11.622Z,11.53
2022-10-14T02:42:38.369Z,12.13
2022-10-14T02:45:05.772Z,17.03
2022-10-14T02:47:32.487Z,12.00
2022-10-14T02:50:00.273Z,9.10
2022-10-14T02:52:26.975Z,13.23
2022-10-14T02:54:53.782Z,13.80
2022-10-14T02:57:20.403Z,9.87
2022-10-14T02:59:48.313Z,20.17
2022-10-14T03:02:15.104Z,16.63
2022-10-14T03:04:41.997Z,11.80
2022-10-14T03:07:10.181Z,15.40
2022-10-14T03:09:42.666Z,13.37
2022-10-14T03:12:10.188Z,12.40
2022-10-14T03:14:36.848Z,16.33
2022-10-14T03:17:04.315Z,12.73
2022-10-14T03:19:33.179Z,10.90
2022-10-14T03:22:00.863Z,13.50
2022-10-14T03:24:27.375Z,8.83
2022-10-14T03:27:14.010Z,12.33
2022-10-14T03:29:41.380Z,12.80
2022-10-14T03:32:16.494Z,12.23
2022-10-14T03:35:05.371Z,10.40
2022-10-14T03:37:32.101Z,17.33
2022-10-14T03:39:59.301Z,19.70
2022-10-14T03:42:26.135Z,15.53
2022-10-14T03:44:52.942Z,24.77
2022-10-14T03:47:26.889Z,15.53
2022-10-14T03:49:54.056Z,19.53
2022-10-14T03:52:37.853Z,20.27
2022-10-14T03:55:09.502Z,19.50
2022-10-14T03:57:36.190Z,25.83
2022-10-14T04:00:05.587Z,22.73
2022-10-14T04:02:41.757Z,25.50
2022-10-14T04:05:34.131Z,20.80
2022-10-14T04:08:05.786Z,27.93
2022-10-14T04:10:34.110Z,31.10
2022-10-14T04:13:01.266Z,26.73
2022-10-14T04:15:35.757Z,30.00
2022-10-14T04:18:09.676Z,35.93
2022-10-14T04:20:37.982Z,28.07
2022-10-14T04:23:05.483Z,32.17
2022-10-14T04:25:33.880Z,34.83
2022-10-14T04:28:03.413Z,39.67
2022-10-14T04:30:42.434Z,43.70
2022-10-14T04:33:14.161Z,32.37
2022-10-14T04:35:41.163Z,28.23
2022-10-14T04:38:11.372Z,43.90
2022-10-14T04:40:48.151Z,27.83
2022-10-14T04:43:14.897Z,20.23
2022-10-14T04:45:42.157Z,21.07
2022-10-14T04:48:10.393Z,27.63
2022-10-14T04:50:41.996Z,30.60
2022-10-14T04:53:47.116Z,20.40
2022-10-14T04:56:32.461Z,28.27
2022-10-14T04:59:01.965Z,17.70
2022-10-14T05:01:55.032Z,21.13
2022-10-14T05:04:24.417Z,18.23
2022-10-14T05:06:51.852Z,24.47
2022-10-14T05:09:19.657Z,26.27
2022-10-14T05:11:46.429Z,19.10
2022-10-14T05:14:16.775Z,17.33
2022-10-14T05:16:47.303Z,16.93
2022-10-14T05:19:14.366Z,20.97
2022-10-14T05:21:48.274Z,17.80
2022-10-14T05:24:20.228Z,12.43
2022-10-14T05:26:46.867Z,16.40
2022-10-14T05:29:14.288Z,30.80
2022-10-14T05:31:41.443Z,17.80
2022-10-14T05:34:26.751Z,14.43
2022-10-14T05:36:54.385Z,30.27
2022-10-14T05:39:22.034Z,19.07
2022-10-14T05:41:48.600Z,18.33
2022-10-14T05:44:19.744Z,19.70
2022-10-14T05:46:48.038Z,24.27
2022-10-14T05:49:14.861Z,25.10
2022-10-14T05:51:43.145Z,15.60
2022-10-14T05:54:16.451Z,23.33
2022-10-14T05:56:43.897Z,15.63
2022-10-14T05:59:10.938Z,18.60
2022-10-14T06:01:38.335Z,19.30
2022-10-14T06:04:05.071Z,13.17
2022-10-14T06:06:32.107Z,20.37
2022-10-14T06:08:58.896Z,12.17
2022-10-14T06:11:25.543Z,10.47
2022-10-14T06:13:52.644Z,14.33
2022-10-14T06:16:19.373Z,16.60
2022-10-14T06:18:46.790Z,11.77
2022-10-14T06:21:15.740Z,9.50
2022-10-14T06:23:42.271Z,11.73
2022-10-14T06:26:11.771Z,7.23
2022-10-14T06:28:38.678Z,7.07
2022-10-14T06:31:05.763Z,8.90
2022-10-14T06:33:32.519Z,13.37
2022-10-14T06:36:01.127Z,8.10
2022-10-14T06:38:27.623Z,7.73
2022-10-14T06:40:54.557Z,8.57
2022-10-14T06:43:21.526Z,12.90
2022-10-14T06:45:48.305Z,8.20
2022-10-14T06:48:15.196Z,10.43
2022-10-14T06:50:42.062Z,13.60
2022-10-14T06:53:08.712Z,8.13
2022-10-14T06:55:35.306Z,9.10
2022-10-14T06:58:01.983Z,8.33
2022-10-14T07:00:28.485Z,11.60
2022-10-14T07:02:55.030Z,8.87
2022-10-14T07:05:21.593Z,8.00
2022-10-14T07:07:48.148Z,9.77
2022-10-14T07:10:14.703Z,10.80
2022-10-14T07:12:41.272Z,8.07
2022-10-14T07:15:08.154Z,9.77
2022-10-14T07:17:34.766Z,15.77
2022-10-14T07:20:01.452Z,9.67
2022-10-14T07:22:27.969Z,9.00
2022-10-14T07:24:54.720Z,5.67
2022-10-14T07:27:21.526Z,6.73
2022-10-14T07:29:48.343Z,9.80
2022-10-14T07:32:14.821Z,6.10
2022-10-14T07:34:41.362Z,7.00
2022-10-14T07:37:07.868Z,7.83
2022-10-14T07:39:34.440Z,4.30
2022-10-14T07:42:01.025Z,4.40
2022-10-14T07:44:27.676Z,6.13
2022-10-14T07:46:54.389Z,7.20
2022-10-14T07:49:21.399Z,4.57
2022-10-14T07:51:48.600Z,4.40
2022-10-14T07:54:19.649Z,5.40
2022-10-14T07:56:46.812Z,5.07
2022-10-14T07:59:13.378Z,3.90
2022-10-14T08:01:40.046Z,4.80
2022-10-14T08:04:06.854Z,13.23
2022-10-14T08:06:33.605Z,6.13
2022-10-14T08:09:00.090Z,7.73
2022-10-14T08:11:28.044Z,13.20
2022-10-14T08:13:55.198Z,5.70
2022-10-14T08:16:26.243Z,6.33
2022-10-14T08:18:53.243Z,9.20
2022-10-14T08:21:21.145Z,9.90
2022-10-14T08:23:48.151Z,5.60
2022-10-14T08:26:19.832Z,7.60
2022-10-14T08:28:46.974Z,5.40
2022-10-14T08:31:13.571Z,4.80
2022-10-14T08:33:40.141Z,7.60
2022-10-14T08:36:06.992Z,3.77
2022-10-14T08:38:33.503Z,3.80
2022-10-14T08:41:03.157Z,10.63
2022-10-14T08:43:35.383Z,5.10
2022-10-14T08:46:10.411Z,7.37
2022-10-14T08:48:37.149Z,5.20
2022-10-14T08:51:07.582Z,3.63
2022-10-14T08:53:56.142Z,6.17
2022-10-14T08:56:24.308Z,5.53
2022-10-14T08:58:51.861Z,6.87
2022-10-14T09:01:26.265Z,7.60
2022-10-14T09:03:54.064Z,7.10
2022-10-14T09:06:30.922Z,9.50
2022-10-14T09:09:00.638Z,4.33
2022-10-14T09:11:30.786Z,5.70
2022-10-14T09:14:01.402Z,4.73
2022-10-14T09:16:30.732Z,6.53
2022-10-14T09:18:58.610Z,4.83
2022-10-14T09:24:21.918Z,4.37
2022-10-14T09:29:42.659Z,9.50
2022-10-14T09:32:12.225Z,4.23
2022-10-14T09:34:40.928Z,5.30
2022-10-14T09:37:23.037Z,6.03
2022-10-14T09:39:50.658Z,6.20
2022-10-14T09:42:19.444Z,4.80
2022-10-14T09:45:02.612Z,3.73
2022-10-14T09:47:29.218Z,5.77
2022-10-14T09:49:56.149Z,4.20
2022-10-14T09:52:23.805Z,4.90
2022-10-14T09:54:58.717Z,7.33
2022-10-14T09:57:25.762Z,4.73
2022-10-14T10:00:00.535Z,5.20
2022-10-14T10:02:40.672Z,4.03
2022-10-14T10:05:22.615Z,8.50
2022-10-14T10:08:01.393Z,5.50
2022-10-14T10:10:30.869Z,7.40
2022-10-14T10:12:57.921Z,6.83
2022-10-14T10:15:24.745Z,4.73
2022-10-14T10:17:51.779Z,5.77
2022-10-14T10:20:33.457Z,6.13
2022-10-14T10:23:20.106Z,18.10
2022-10-14T10:25:48.127Z,17.07
2022-10-14T10:28:20.278Z,12.40
2022-10-14T10:31:05.379Z,11.70
2022-10-14T10:33:42.676Z,7.10
2022-10-14T10:38:49.588Z,10.53
2022-10-14T10:41:19.228Z,8.80
2022-10-14T10:43:54.503Z,14.10
2022-10-14T10:46:23.993Z,7.33
2022-10-14T10:48:55.320Z,7.60
2022-10-14T10:51:30.946Z,7.50
2022-10-14T10:54:08.056Z,8.60
2022-10-14T10:56:34.684Z,11.60
2022-10-14T11:01:46.705Z,12.53
2022-10-14T11:04:19.509Z,8.40
2022-10-14T11:07:27.084Z,8.97
2022-10-14T11:10:13.536Z,16.03
2022-10-14T11:12:47.208Z,9.23
2022-10-14T11:15:22.872Z,8.73
2022-10-14T11:18:09.758Z,7.73
2022-10-14T11:20:55.067Z,7.30
2022-10-14T11:23:35.622Z,9.43
2022-10-14T11:26:20.475Z,9.53
2022-10-14T11:29:06.042Z,11.40
2022-10-14T11:31:32.784Z,8.10
2022-10-14T11:33:59.253Z,8.90
2022-10-14T11:36:35.785Z,17.90
2022-10-14T11:39:15.535Z,7.20
2022-10-14T11:41:51.287Z,9.30
2022-10-14T11:44:23.657Z,9.20
2022-10-14T11:46:53.171Z,8.97
2022-10-14T11:49:27.748Z,12.00
2022-10-14T11:52:00.358Z,17.23
2022-10-14T11:54:41.144Z,13.60
2022-10-14T11:57:13.007Z,13.40
2022-10-14T11:59:59.994Z,15.93
2022-10-14T12:02:32.049Z,25.03
2022-10-14T12:05:03.031Z,30.40
2022-10-14T12:07:35.016Z,17.60
2022-10-14T12:10:04.160Z,31.00
2022-10-14T12:12:32.355Z,25.43
2022-10-14T12:15:05.805Z,22.80
2022-10-14T12:17:35.935Z,10.57
2022-10-14T12:20:07.389Z,12.87
2022-10-14T12:22:34.874Z,10.53
2022-10-14T12:25:03.941Z,13.73
2022-10-14T12:27:30.983Z,21.30
2022-10-14T12:29:58.836Z,19.60
2022-10-14T12:32:30.695Z,28.13
2022-10-14T12:35:01.412Z,17.40
2022-10-14T12:37:32.410Z,12.77
2022-10-14T12:40:02.529Z,15.20
2022-10-14T12:42:32.283Z,13.10
2022-10-14T12:45:03.333Z,10.97
2022-10-14T12:47:37.092Z,10.10
2022-10-14T12:50:15.884Z,11.60
2022-10-14T12:52:47.001Z,10.43
2022-10-14T12:55:17.800Z,15.00
2022-10-14T12:57:46.849Z,14.50
2022-10-14T13:00:22.506Z,13.80
2022-10-14T13:02:54.362Z,11.43
2022-10-14T13:05:27.286Z,8.20
2022-10-14T13:08:11.053Z,15.07
2022-10-14T13:10:41.655Z,9.83
2022-10-14T13:13:30.455Z,8.63
2022-10-14T13:15:57.044Z,23.97
2022-10-14T13:18:34.314Z,7.83
2022-10-14T13:21:00.906Z,14.33
2022-10-14T13:23:27.464Z,13.23
2022-10-14T13:26:15.961Z,22.60
2022-10-14T13:28:46.954Z,8.00
2022-10-14T13:31:21.545Z,18.53
2022-10-14T13:33:52.025Z,23.33
2022-10-14T13:36:32.473Z,14.50
2022-10-14T13:39:00.189Z,14.17
2022-10-14T13:41:30.729Z,5.97
2022-10-14T13:43:59.327Z,7.20
2022-10-14T13:46:29.204Z,8.10
2022-10-14T13:48:57.651Z,7.50
2022-10-14T13:51:31.852Z,6.63
2022-10-14T13:54:16.054Z,5.40
2022-10-14T13:56:43.734Z,8.07
2022-10-14T13:59:32.944Z,5.37
2022-10-14T14:02:09.802Z,5.17
2022-10-14T14:04:37.543Z,4.63
2022-10-14T14:07:27.736Z,7.33
2022-10-14T14:09:52.972Z,4.43
2022-10-14T14:12:20.915Z,6.53
2022-10-14T14:14:48.699Z,5.60
2022-10-14T14:17:20.009Z,5.73
2022-10-14T14:19:50.581Z,5.30
2022-10-14T14:22:19.053Z,5.13
2022-10-14T14:24:46.834Z,4.97
2022-10-14T14:27:14.672Z,5.53
2022-10-14T14:29:45.093Z,6.00
2022-10-14T14:32:15.001Z,4.47
2022-10-14T14:34:43.537Z,7.80
2022-10-14T14:40:03.713Z,5.80
2022-10-14T14:42:39.630Z,4.23
2022-10-14T14:45:12.768Z,4.93
2022-10-14T14:47:39.965Z,16.27
2022-10-14T14:50:29.139Z,4.93
2022-10-14T14:52:54.547Z,5.37
2022-10-14T14:55:34.747Z,6.50
2022-10-14T14:58:02.475Z,7.10
2022-10-14T15:00:30.652Z,6.43
2022-10-14T15:02:59.768Z,5.43
2022-10-14T15:05:26.738Z,9.90
2022-10-14T15:07:53.443Z,6.80
2022-10-14T15:10:31.434Z,6.47
2022-10-14T15:12:59.190Z,5.37
2022-10-14T15:15:33.926Z,7.23
2022-10-14T15:18:05.109Z,7.10
2022-10-14T15:20:34.932Z,7.37
2022-10-14T15:23:02.420Z,8.13
2022-10-14T15:25:31.201Z,5.87
2022-10-14T15:28:02.128Z,6.83
2022-10-14T15:30:31.809Z,9.03
2022-10-14T15:32:59.880Z,10.67
2022-10-14T15:35:27.162Z,8.20
2022-10-14T15:37:54.116Z,9.07
2022-10-14T15:40:26.253Z,8.93
2022-10-14T15:42:52.840Z,6.23
2022-10-14T15:45:19.781Z,5.83
2022-10-14T15:47:52.159Z,8.97
2022-10-14T15:50:21.151Z,6.40
2022-10-14T15:52:53.501Z,6.43
2022-10-14T15:55:24.652Z,8.50
2022-10-14T15:57:52.317Z,7.03
2022-10-14T16:00:20.100Z,6.13
2022-10-14T16:02:47.960Z,6.00
2022-10-14T16:05:19.882Z,10.03
2022-10-14T16:07:48.264Z,8.57
2022-10-14T16:10:15.900Z,6.40
2022-10-14T16:12:42.705Z,16.53
2022-10-14T16:15:18.886Z,34.73
2022-10-14T16:17:47.603Z,46.67
2022-10-14T16:20:16.937Z,10.40
2022-10-14T16:22:43.588Z,6.67
2022-10-14T16:25:30.963Z,8.00
2022-10-14T16:27:57.892Z,13.20
2022-10-14T16:30:27.906Z,15.47
2022-10-14T16:32:55.051Z,12.27
2022-10-14T16:35:21.681Z,9.13
2022-10-14T16:37:48.927Z,9.90
2022-10-14T16:40:15.572Z,8.20
2022-10-14T16:42:42.229Z,8.17
2022-10-14T16:45:08.955Z,6.10
2022-10-14T16:47:35.752Z,7.50
2022-10-14T16:50:02.376Z,7.77
2022-10-14T16:52:29.016Z,8.30
2022-10-14T16:54:55.567Z,8.73
2022-10-14T16:57:22.205Z,8.87
2022-10-14T16:59:48.938Z,13.03
2022-10-14T17:02:16.799Z,16.13
2022-10-14T17:04:46.397Z,15.43
2022-10-14T17:07:14.773Z,20.80
2022-10-14T17:09:41.357Z,20.80
2022-10-14T17:12:12.887Z,23.97
2022-10-14T17:14:40.982Z,29.73
2022-10-14T17:17:07.662Z,25.13
2022-10-14T17:19:34.249Z,24.33
2022-10-14T17:22:02.074Z,27.87
2022-10-14T17:24:29.246Z,25.33
2022-10-14T17:26:56.456Z,137.37
2022-10-14T17:29:23.125Z,202.33
2022-10-14T17:31:49.793Z,99.43
2022-10-14T17:34:16.422Z,110.97
2022-10-14T17:36:43.025Z,101.33
2022-10-14T17:39:16.473Z,59.93
2022-10-14T17:41:48.042Z,61.00
2022-10-14T17:44:14.728Z,50.10
2022-10-14T17:46:41.320Z,30.60
2022-10-14T17:49:11.100Z,29.80
2022-10-14T17:51:38.480Z,26.90
2022-10-14T17:54:06.258Z,24.30
2022-10-14T17:56:33.808Z,27.37
2022-10-14T17:59:01.466Z,25.97
2022-10-14T18:01:37.520Z,18.57
2022-10-14T18:04:15.772Z,32.00
2022-10-14T18:06:43.911Z,16.57
2022-10-14T18:09:11.570Z,27.77
2022-10-14T18:12:07.226Z,19.53
2022-10-14T18:14:27.972Z,24.87
2022-10-14T18:16:54.795Z,28.70
2022-10-14T18:19:21.315Z,31.43
2022-10-14T18:21:48.076Z,18.03
2022-10-14T18:24:14.629Z,45.13
2022-10-14T18:26:41.406Z,17.57
2022-10-14T18:29:08.892Z,16.30
2022-10-14T18:31:36.277Z,17.63
2022-10-14T18:34:03.160Z,19.23
2022-10-14T18:36:31.041Z,17.00
2022-10-14T18:38:58.833Z,21.40
2022-10-14T18:41:25.943Z,138.37
2022-10-14T18:43:54.563Z,92.03
2022-10-14T18:46:22.685Z,70.57
2022-10-14T18:48:50.853Z,56.27
2022-10-14T18:51:18.661Z,73.30
2022-10-14T18:53:45.887Z,126.53
2022-10-14T18:56:17.066Z,53.43
2022-10-14T18:58:44.468Z,28.93
2022-10-14T19:01:11.699Z,19.97
2022-10-14T19:03:39.942Z,20.33
2022-10-14T19:06:09.995Z,23.93
2022-10-14T19:08:37.336Z,23.43
2022-10-14T19:11:08.679Z,24.77
2022-10-14T19:13:35.525Z,25.17
2022-10-14T19:16:03.273Z,23.23
2022-10-14T19:18:29.925Z,26.90
2022-10-14T19:21:02.760Z,27.60
2022-10-14T19:23:29.272Z,30.83
2022-10-14T19:25:56.229Z,28.83
2022-10-14T19:28:22.869Z,39.23
2022-10-14T19:30:49.476Z,27.10
2022-10-14T19:33:16.202Z,33.10
2022-10-14T19:35:42.804Z,26.67
2022-10-14T19:38:09.510Z,23.87
2022-10-14T19:40:36.145Z,21.83
2022-10-14T19:43:02.801Z,28.67
2022-10-14T19:45:29.461Z,22.90
2022-10-14T19:47:56.066Z,22.23
2022-10-14T19:50:22.625Z,24.97
2022-10-14T19:52:49.332Z,27.20
2022-10-14T19:55:15.973Z,22.80
2022-10-14T19:57:42.533Z,26.40
2022-10-14T20:00:09.528Z,30.77
2022-10-14T20:02:36.230Z,25.07
2022-10-14T20:05:02.898Z,28.20
2022-10-14T20:07:29.545Z,40.43
2022-10-14T20:09:58.093Z,25.47
2022-10-14T20:12:27.113Z,35.57
2022-10-14T20:14:55.035Z,28.13
2022-10-14T20:17:21.623Z,29.53
2022-10-14T20:19:48.272Z,35.40
2022-10-14T20:22:14.785Z,44.27
2022-10-14T20:24:41.587Z,25.73
2022-10-14T20:27:11.072Z,20.70
2022-10-14T20:29:38.861Z,25.00
2022-10-14T20:32:05.482Z,39.23
2022-10-14T20:34:31.984Z,41.03
2022-10-14T20:36:58.492Z,38.67
2022-10-14T20:39:25.114Z,48.13
2022-10-14T20:41:51.647Z,24.53
2022-10-14T20:44:23.665Z,39.17
2022-10-14T20:46:50.798Z,30.10
2022-10-14T20:49:17.497Z,26.83
2022-10-14T20:51:44.109Z,19.20
2022-10-14T20:54:11.814Z,23.13
2022-10-14T20:56:38.552Z,20.53
2022-10-14T20:59:07.353Z,14.83
2022-10-14T21:01:35.304Z,20.80
2022-10-14T21:04:02.723Z,16.27
2022-10-14T21:06:29.543Z,12.63
2022-10-14T21:08:57.140Z,21.83
2022-10-14T21:11:24.185Z,12.33
2022-10-14T21:13:55.440Z,17.37
2022-10-14T21:16:24.225Z,12.47
2022-10-14T21:18:55.223Z,11.60
2022-10-14T21:21:24.997Z,13.00
2022-10-14T21:23:51.574Z,11.47
2022-10-14T21:26:18.309Z,11.73
2022-10-14T21:28:45.094Z,12.03
2022-10-14T21:31:14.776Z,13.90
2022-10-14T21:33:44.133Z,12.37
2022-10-14T21:36:12.049Z,12.00
2022-10-14T21:38:38.789Z,14.17
2022-10-14T21:41:06.218Z,10.77
2022-10-14T21:43:34.310Z,11.10
2022-10-14T21:46:01.871Z,11.57
2022-10-14T21:48:28.355Z,11.00
2022-10-14T21:51:05.252Z,20.33
2022-10-14T21:53:32.430Z,13.00
2022-10-14T21:55:59.006Z,12.57
2022-10-14T21:58:25.781Z,9.77
2022-10-14T22:00:52.929Z,12.13
2022-10-14T22:03:19.630Z,18.00
2022-10-14T22:05:46.172Z,8.93
2022-10-14T22:08:12.907Z,12.87
2022-10-14T22:10:43.739Z,16.17
2022-10-14T22:13:10.420Z,9.90
2022-10-14T22:15:41.476Z,11.60
2022-10-14T22:18:08.198Z,13.63
2022-10-14T22:20:34.908Z,10.20
2022-10-14T22:23:01.399Z,11.87
2022-10-14T22:25:28.111Z,12.60
2022-10-14T22:27:54.822Z,13.30
2022-10-14T22:30:21.517Z,12.07
2022-10-14T22:32:48.108Z,19.30
2022-10-14T22:35:14.765Z,18.33
2022-10-14T22:37:41.602Z,11.27
2022-10-14T22:40:08.343Z,11.27
2022-10-14T22:42:36.858Z,14.30
2022-10-14T22:45:06.236Z,18.33
2022-10-14T22:47:32.993Z,12.40
2022-10-14T22:49:59.460Z,12.43
2022-10-14T22:52:26.020Z,11.83
2022-10-14T22:54:52.719Z,14.53
2022-10-14T22:57:19.336Z,12.10
2022-10-14T22:59:46.091Z,11.37
2022-10-14T23:02:12.817Z,11.73
2022-10-14T23:04:39.248Z,11.90
2022-10-14T23:07:06.993Z,14.17
2022-10-14T23:12:05.520Z,11.87
2022-10-14T23:14:32.258Z,14.27
2022-10-14T23:16:58.749Z,15.50
2022-10-14T23:19:25.276Z,17.27
2022-10-14T23:21:51.915Z,15.53
2022-10-14T23:24:18.408Z,11.87
2022-10-14T23:26:45.058Z,15.83
2022-10-14T23:29:11.832Z,13.63
2022-10-14T23:31:38.944Z,17.30
2022-10-14T23:34:07.119Z,13.87
2022-10-14T23:36:33.808Z,14.30
2022-10-14T23:39:00.346Z,15.87
2022-10-14T23:41:26.936Z,12.80
2022-10-14T23:43:53.633Z,15.13
2022-10-14T23:46:20.381Z,13.77
2022-10-14T23:48:55.406Z,19.13
2022-10-14T23:51:33.404Z,21.10
2022-10-14T23:54:00.084Z,18.60
2022-10-14T23:56:26.619Z,18.07
2022-10-14T23:58:53.078Z,13.60
